sensor_id;sensor_type;location;lat;lon;timestamp;P1;durP1;ratioP1;P2;durP2;ratioP2
1887;SDS011;944;51.574;6.980;2023-07-13T00:00:20;10.77;;;2.50;;
1887;SDS011;944;51.574;6.980;2023-07-13T00:02:47;6.03;;;2.80;;
1887;SDS011;944;51.574;6.980;2023-07-13T00:05:14;11.20;;;3.23;;
1887;SDS011;944;51.574;6.980;2023-07-13T00:07:41;8.37;;;3.03;;
1887;SDS011;944;51.574;6.980;2023-07-13T00:10:08;8.37;;;2.77;;
1887;SDS011;944;51.574;6.980;2023-07-13T00:12:38;7.00;;;2.47;;
1887;SDS011;944;51.574;6.980;2023-07-13T00:15:10;7.60;;;3.00;;
1887;SDS011;944;51.574;6.980;2023-07-13T00:17:41;10.97;;;2.60;;
1887;SDS011;944;51.574;6.980;2023-07-13T00:20:09;10.30;;;2.63;;
1887;SDS011;944;51.574;6.980;2023-07-13T00:22:39;8.43;;;3.27;;
1887;SDS011;944;51.574;6.980;2023-07-13T00:25:18;10.43;;;3.10;;
1887;SDS011;944;51.574;6.980;2023-07-13T00:28:00;17.43;;;3.83;;
1887;SDS011;944;51.574;6.980;2023-07-13T00:30:35;8.67;;;2.63;;
1887;SDS011;944;51.574;6.980;2023-07-13T00:33:19;5.67;;;2.27;;
1887;SDS011;944;51.574;6.980;2023-07-13T00:35:53;7.70;;;2.43;;
1887;SDS011;944;51.574;6.980;2023-07-13T00:38:21;8.70;;;2.83;;
1887;SDS011;944;51.574;6.980;2023-07-13T00:40:49;8.37;;;2.87;;
1887;SDS011;944;51.574;6.980;2023-07-13T00:43:16;8.20;;;2.53;;
1887;SDS011;944;51.574;6.980;2023-07-13T00:48:40;12.03;;;3.40;;
1887;SDS011;944;51.574;6.980;2023-07-13T00:51:10;4.00;;;2.10;;
1887;SDS011;944;51.574;6.980;2023-07-13T00:53:37;9.87;;;2.60;;
1887;SDS011;944;51.574;6.980;2023-07-13T00:56:05;8.90;;;2.30;;
1887;SDS011;944;51.574;6.980;2023-07-13T00:58:32;8.23;;;2.33;;
1887;SDS011;944;51.574;6.980;2023-07-13T01:01:00;14.90;;;3.73;;
1887;SDS011;944;51.574;6.980;2023-07-13T01:03:28;8.17;;;2.93;;
1887;SDS011;944;51.574;6.980;2023-07-13T01:05:55;9.77;;;3.20;;
1887;SDS011;944;51.574;6.980;2023-07-13T01:08:23;12.47;;;3.03;;
1887;SDS011;944;51.574;6.980;2023-07-13T01:10:53;8.30;;;3.20;;
1887;SDS011;944;51.574;6.980;2023-07-13T01:13:20;9.90;;;2.90;;
1887;SDS011;944;51.574;6.980;2023-07-13T01:15:49;9.43;;;2.53;;
1887;SDS011;944;51.574;6.980;2023-07-13T01:18:18;7.90;;;3.00;;
1887;SDS011;944;51.574;6.980;2023-07-13T01:20:53;9.63;;;2.90;;
1887;SDS011;944;51.574;6.980;2023-07-13T01:23:22;11.00;;;3.23;;
1887;SDS011;944;51.574;6.980;2023-07-13T01:25:50;12.37;;;3.03;;
1887;SDS011;944;51.574;6.980;2023-07-13T01:28:17;7.50;;;2.87;;
1887;SDS011;944;51.574;6.980;2023-07-13T01:30:45;12.50;;;3.40;;
1887;SDS011;944;51.574;6.980;2023-07-13T01:33:13;7.60;;;2.73;;
1887;SDS011;944;51.574;6.980;2023-07-13T01:35:42;12.53;;;2.77;;
1887;SDS011;944;51.574;6.980;2023-07-13T01:38:13;5.67;;;2.53;;
1887;SDS011;944;51.574;6.980;2023-07-13T01:40:42;11.93;;;2.90;;
1887;SDS011;944;51.574;6.980;2023-07-13T01:43:09;5.10;;;2.80;;
1887;SDS011;944;51.574;6.980;2023-07-13T01:45:37;8.60;;;2.70;;
1887;SDS011;944;51.574;6.980;2023-07-13T01:48:04;15.53;;;2.90;;
1887;SDS011;944;51.574;6.980;2023-07-13T01:50:31;12.07;;;4.03;;
1887;SDS011;944;51.574;6.980;2023-07-13T01:52:58;12.27;;;2.97;;
1887;SDS011;944;51.574;6.980;2023-07-13T01:55:28;10.43;;;3.30;;
1887;SDS011;944;51.574;6.980;2023-07-13T01:57:56;8.67;;;2.43;;
1887;SDS011;944;51.574;6.980;2023-07-13T02:00:23;6.77;;;2.57;;
1887;SDS011;944;51.574;6.980;2023-07-13T02:02:50;6.23;;;2.70;;
1887;SDS011;944;51.574;6.980;2023-07-13T02:05:17;8.97;;;2.40;;
1887;SDS011;944;51.574;6.980;2023-07-13T02:07:45;7.47;;;2.93;;
1887;SDS011;944;51.574;6.980;2023-07-13T02:10:12;9.80;;;2.67;;
1887;SDS011;944;51.574;6.980;2023-07-13T02:12:41;5.90;;;2.50;;
1887;SDS011;944;51.574;6.980;2023-07-13T02:15:09;7.90;;;2.80;;
1887;SDS011;944;51.574;6.980;2023-07-13T02:17:36;6.87;;;2.60;;
1887;SDS011;944;51.574;6.980;2023-07-13T02:20:03;7.47;;;2.20;;
1887;SDS011;944;51.574;6.980;2023-07-13T02:22:32;6.30;;;1.90;;
1887;SDS011;944;51.574;6.980;2023-07-13T02:24:59;11.50;;;2.50;;
1887;SDS011;944;51.574;6.980;2023-07-13T02:27:26;5.57;;;2.17;;
1887;SDS011;944;51.574;6.980;2023-07-13T02:29:54;8.93;;;2.77;;
1887;SDS011;944;51.574;6.980;2023-07-13T02:32:21;13.70;;;3.83;;
1887;SDS011;944;51.574;6.980;2023-07-13T02:34:50;4.40;;;2.53;;
1887;SDS011;944;51.574;6.980;2023-07-13T02:37:17;8.37;;;2.77;;
1887;SDS011;944;51.574;6.980;2023-07-13T02:39:44;13.27;;;2.93;;
1887;SDS011;944;51.574;6.980;2023-07-13T02:42:11;14.10;;;2.70;;
1887;SDS011;944;51.574;6.980;2023-07-13T02:44:38;10.20;;;2.90;;
1887;SDS011;944;51.574;6.980;2023-07-13T02:47:08;10.50;;;2.60;;
1887;SDS011;944;51.574;6.980;2023-07-13T02:49:35;9.93;;;2.77;;
1887;SDS011;944;51.574;6.980;2023-07-13T02:52:02;5.53;;;2.20;;
1887;SDS011;944;51.574;6.980;2023-07-13T02:54:30;9.50;;;2.57;;
1887;SDS011;944;51.574;6.980;2023-07-13T02:56:57;8.53;;;3.17;;
1887;SDS011;944;51.574;6.980;2023-07-13T02:59:24;8.50;;;2.63;;
1887;SDS011;944;51.574;6.980;2023-07-13T03:01:51;5.37;;;2.40;;
1887;SDS011;944;51.574;6.980;2023-07-13T03:04:19;7.20;;;2.50;;
1887;SDS011;944;51.574;6.980;2023-07-13T03:06:46;6.27;;;2.27;;
1887;SDS011;944;51.574;6.980;2023-07-13T03:09:14;8.27;;;2.43;;
1887;SDS011;944;51.574;6.980;2023-07-13T03:11:40;7.50;;;2.27;;
1887;SDS011;944;51.574;6.980;2023-07-13T03:14:08;6.70;;;2.60;;
1887;SDS011;944;51.574;6.980;2023-07-13T03:16:35;5.67;;;2.43;;
1887;SDS011;944;51.574;6.980;2023-07-13T03:19:02;9.60;;;2.57;;
1887;SDS011;944;51.574;6.980;2023-07-13T03:21:30;8.80;;;2.60;;
1887;SDS011;944;51.574;6.980;2023-07-13T03:23:57;6.77;;;2.67;;
1887;SDS011;944;51.574;6.980;2023-07-13T03:26:24;5.37;;;2.10;;
1887;SDS011;944;51.574;6.980;2023-07-13T03:28:51;16.30;;;3.23;;
1887;SDS011;944;51.574;6.980;2023-07-13T03:31:19;4.50;;;2.27;;
1887;SDS011;944;51.574;6.980;2023-07-13T03:33:48;5.07;;;3.07;;
1887;SDS011;944;51.574;6.980;2023-07-13T03:36:15;7.93;;;2.57;;
1887;SDS011;944;51.574;6.980;2023-07-13T03:38:47;8.20;;;2.33;;
1887;SDS011;944;51.574;6.980;2023-07-13T03:41:15;12.70;;;2.70;;
1887;SDS011;944;51.574;6.980;2023-07-13T03:43:42;6.47;;;2.60;;
1887;SDS011;944;51.574;6.980;2023-07-13T03:46:10;5.27;;;2.23;;
1887;SDS011;944;51.574;6.980;2023-07-13T03:48:37;9.77;;;2.20;;
1887;SDS011;944;51.574;6.980;2023-07-13T03:51:05;6.10;;;2.47;;
1887;SDS011;944;51.574;6.980;2023-07-13T03:53:32;7.10;;;2.47;;
1887;SDS011;944;51.574;6.980;2023-07-13T03:56:00;8.43;;;2.60;;
1887;SDS011;944;51.574;6.980;2023-07-13T03:58:29;15.13;;;2.73;;
1887;SDS011;944;51.574;6.980;2023-07-13T04:00:58;4.80;;;2.30;;
1887;SDS011;944;51.574;6.980;2023-07-13T04:03:27;9.13;;;2.43;;
1887;SDS011;944;51.574;6.980;2023-07-13T04:05:57;7.50;;;2.57;;
1887;SDS011;944;51.574;6.980;2023-07-13T04:08:25;11.40;;;3.00;;
1887;SDS011;944;51.574;6.980;2023-07-13T04:10:53;21.23;;;3.83;;
1887;SDS011;944;51.574;6.980;2023-07-13T04:13:22;6.00;;;2.77;;
1887;SDS011;944;51.574;6.980;2023-07-13T04:15:49;4.83;;;2.23;;
1887;SDS011;944;51.574;6.980;2023-07-13T04:18:17;11.73;;;3.40;;
1887;SDS011;944;51.574;6.980;2023-07-13T04:20:45;6.83;;;2.53;;
1887;SDS011;944;51.574;6.980;2023-07-13T04:23:14;7.10;;;3.10;;
1887;SDS011;944;51.574;6.980;2023-07-13T04:25:43;6.73;;;2.20;;
1887;SDS011;944;51.574;6.980;2023-07-13T04:28:10;10.17;;;2.83;;
1887;SDS011;944;51.574;6.980;2023-07-13T04:30:38;9.93;;;2.80;;
1887;SDS011;944;51.574;6.980;2023-07-13T04:33:05;14.80;;;2.83;;
1887;SDS011;944;51.574;6.980;2023-07-13T04:35:33;9.57;;;2.63;;
1887;SDS011;944;51.574;6.980;2023-07-13T04:38:01;7.87;;;2.63;;
1887;SDS011;944;51.574;6.980;2023-07-13T04:40:28;7.70;;;2.60;;
1887;SDS011;944;51.574;6.980;2023-07-13T04:42:56;8.23;;;2.73;;
1887;SDS011;944;51.574;6.980;2023-07-13T04:45:24;11.63;;;2.17;;
1887;SDS011;944;51.574;6.980;2023-07-13T04:47:52;13.63;;;2.87;;
1887;SDS011;944;51.574;6.980;2023-07-13T04:50:20;15.03;;;3.37;;
1887;SDS011;944;51.574;6.980;2023-07-13T04:52:48;11.30;;;2.83;;
1887;SDS011;944;51.574;6.980;2023-07-13T04:55:16;8.40;;;2.80;;
1887;SDS011;944;51.574;6.980;2023-07-13T04:57:43;11.97;;;3.13;;
1887;SDS011;944;51.574;6.980;2023-07-13T05:00:11;14.73;;;3.27;;
1887;SDS011;944;51.574;6.980;2023-07-13T05:02:40;8.83;;;2.57;;
1887;SDS011;944;51.574;6.980;2023-07-13T05:05:12;15.13;;;3.43;;
1887;SDS011;944;51.574;6.980;2023-07-13T05:07:40;10.40;;;2.70;;
1887;SDS011;944;51.574;6.980;2023-07-13T05:10:07;8.43;;;2.67;;
1887;SDS011;944;51.574;6.980;2023-07-13T05:12:35;11.80;;;3.30;;
1887;SDS011;944;51.574;6.980;2023-07-13T05:15:03;8.97;;;3.30;;
1887;SDS011;944;51.574;6.980;2023-07-13T05:17:31;16.13;;;3.77;;
1887;SDS011;944;51.574;6.980;2023-07-13T05:19:58;10.90;;;3.13;;
1887;SDS011;944;51.574;6.980;2023-07-13T05:22:27;18.33;;;3.03;;
1887;SDS011;944;51.574;6.980;2023-07-13T05:25:00;13.80;;;2.70;;
1887;SDS011;944;51.574;6.980;2023-07-13T05:27:31;9.33;;;2.40;;
1887;SDS011;944;51.574;6.980;2023-07-13T05:30:06;7.47;;;3.07;;
1887;SDS011;944;51.574;6.980;2023-07-13T05:42:39;9.30;;;2.93;;
1887;SDS011;944;51.574;6.980;2023-07-13T05:45:07;10.97;;;3.30;;
1887;SDS011;944;51.574;6.980;2023-07-13T05:47:35;15.40;;;3.87;;
1887;SDS011;944;51.574;6.980;2023-07-13T05:50:02;17.13;;;3.70;;
1887;SDS011;944;51.574;6.980;2023-07-13T05:56:14;13.50;;;3.27;;
1887;SDS011;944;51.574;6.980;2023-07-13T05:58:41;16.77;;;3.50;;
1887;SDS011;944;51.574;6.980;2023-07-13T06:01:11;23.57;;;4.93;;
1887;SDS011;944;51.574;6.980;2023-07-13T06:03:44;15.80;;;4.40;;
1887;SDS011;944;51.574;6.980;2023-07-13T06:06:15;12.97;;;3.53;;
1887;SDS011;944;51.574;6.980;2023-07-13T06:08:48;20.07;;;4.60;;
1887;SDS011;944;51.574;6.980;2023-07-13T06:11:30;13.00;;;4.30;;
1887;SDS011;944;51.574;6.980;2023-07-13T06:13:58;12.00;;;4.20;;
1887;SDS011;944;51.574;6.980;2023-07-13T06:16:26;15.63;;;4.40;;
1887;SDS011;944;51.574;6.980;2023-07-13T06:18:57;18.40;;;4.87;;
1887;SDS011;944;51.574;6.980;2023-07-13T06:21:39;17.60;;;4.30;;
1887;SDS011;944;51.574;6.980;2023-07-13T06:24:09;24.43;;;3.77;;
1887;SDS011;944;51.574;6.980;2023-07-13T06:26:42;14.37;;;4.27;;
1887;SDS011;944;51.574;6.980;2023-07-13T06:29:11;16.43;;;4.33;;
1887;SDS011;944;51.574;6.980;2023-07-13T06:34:35;14.90;;;4.70;;
1887;SDS011;944;51.574;6.980;2023-07-13T06:37:19;20.37;;;4.87;;
1887;SDS011;944;51.574;6.980;2023-07-13T06:39:48;18.27;;;4.80;;
1887;SDS011;944;51.574;6.980;2023-07-13T06:42:22;24.17;;;5.33;;
1887;SDS011;944;51.574;6.980;2023-07-13T06:44:57;14.73;;;5.17;;
1887;SDS011;944;51.574;6.980;2023-07-13T06:47:26;15.77;;;6.20;;
1887;SDS011;944;51.574;6.980;2023-07-13T06:50:07;15.20;;;5.07;;
1887;SDS011;944;51.574;6.980;2023-07-13T06:53:10;19.53;;;5.60;;
1887;SDS011;944;51.574;6.980;2023-07-13T06:56:10;14.13;;;5.90;;
1887;SDS011;944;51.574;6.980;2023-07-13T06:58:39;21.33;;;7.23;;
1887;SDS011;944;51.574;6.980;2023-07-13T07:01:10;19.40;;;5.90;;
1887;SDS011;944;51.574;6.980;2023-07-13T07:07:23;21.00;;;7.03;;
1887;SDS011;944;51.574;6.980;2023-07-13T07:09:50;26.63;;;10.33;;
1887;SDS011;944;51.574;6.980;2023-07-13T07:12:17;28.40;;;10.53;;
1887;SDS011;944;51.574;6.980;2023-07-13T07:14:46;27.43;;;10.40;;
1887;SDS011;944;51.574;6.980;2023-07-13T07:17:13;19.10;;;9.33;;
1887;SDS011;944;51.574;6.980;2023-07-13T07:19:40;21.53;;;9.20;;
1887;SDS011;944;51.574;6.980;2023-07-13T07:22:06;20.80;;;9.17;;
1887;SDS011;944;51.574;6.980;2023-07-13T07:24:33;18.00;;;11.53;;
1887;SDS011;944;51.574;6.980;2023-07-13T07:27:00;18.13;;;9.20;;
1887;SDS011;944;51.574;6.980;2023-07-13T07:29:28;16.70;;;6.60;;
1887;SDS011;944;51.574;6.980;2023-07-13T07:31:57;12.30;;;5.60;;
1887;SDS011;944;51.574;6.980;2023-07-13T07:34:25;13.30;;;6.10;;
1887;SDS011;944;51.574;6.980;2023-07-13T07:36:58;15.00;;;5.27;;
1887;SDS011;944;51.574;6.980;2023-07-13T07:39:27;29.00;;;6.07;;
1887;SDS011;944;51.574;6.980;2023-07-13T07:41:55;20.53;;;4.93;;
1887;SDS011;944;51.574;6.980;2023-07-13T07:44:24;18.90;;;6.57;;
1887;SDS011;944;51.574;6.980;2023-07-13T07:46:53;10.70;;;4.40;;
1887;SDS011;944;51.574;6.980;2023-07-13T07:49:34;10.80;;;4.00;;
1887;SDS011;944;51.574;6.980;2023-07-13T07:52:03;9.73;;;3.77;;
1887;SDS011;944;51.574;6.980;2023-07-13T07:54:31;17.20;;;3.37;;
1887;SDS011;944;51.574;6.980;2023-07-13T07:56:58;18.03;;;4.20;;
1887;SDS011;944;51.574;6.980;2023-07-13T07:59:25;9.70;;;3.47;;
1887;SDS011;944;51.574;6.980;2023-07-13T08:01:52;8.10;;;3.53;;
1887;SDS011;944;51.574;6.980;2023-07-13T08:04:19;14.47;;;3.40;;
1887;SDS011;944;51.574;6.980;2023-07-13T08:06:47;10.43;;;3.53;;
1887;SDS011;944;51.574;6.980;2023-07-13T08:09:14;11.80;;;3.67;;
1887;SDS011;944;51.574;6.980;2023-07-13T08:11:41;13.80;;;3.90;;
1887;SDS011;944;51.574;6.980;2023-07-13T08:14:08;8.57;;;3.50;;
1887;SDS011;944;51.574;6.980;2023-07-13T08:16:35;13.90;;;3.70;;
1887;SDS011;944;51.574;6.980;2023-07-13T08:19:02;10.87;;;3.70;;
1887;SDS011;944;51.574;6.980;2023-07-13T08:21:29;15.13;;;3.30;;
1887;SDS011;944;51.574;6.980;2023-07-13T08:23:57;9.53;;;3.20;;
1887;SDS011;944;51.574;6.980;2023-07-13T08:26:24;11.53;;;3.27;;
1887;SDS011;944;51.574;6.980;2023-07-13T08:28:51;11.27;;;3.37;;
1887;SDS011;944;51.574;6.980;2023-07-13T08:31:17;8.03;;;3.30;;
1887;SDS011;944;51.574;6.980;2023-07-13T08:33:44;11.33;;;3.67;;
1887;SDS011;944;51.574;6.980;2023-07-13T08:36:11;15.60;;;4.60;;
1887;SDS011;944;51.574;6.980;2023-07-13T08:38:38;17.00;;;3.80;;
1887;SDS011;944;51.574;6.980;2023-07-13T08:41:11;15.50;;;3.67;;
1887;SDS011;944;51.574;6.980;2023-07-13T08:43:39;17.53;;;4.23;;
1887;SDS011;944;51.574;6.980;2023-07-13T08:46:09;10.40;;;3.20;;
1887;SDS011;944;51.574;6.980;2023-07-13T08:48:41;10.47;;;3.63;;
1887;SDS011;944;51.574;6.980;2023-07-13T08:51:18;13.43;;;4.10;;
1887;SDS011;944;51.574;6.980;2023-07-13T08:53:56;11.60;;;3.30;;
1887;SDS011;944;51.574;6.980;2023-07-13T09:05:51;11.67;;;3.90;;
1887;SDS011;944;51.574;6.980;2023-07-13T09:08:29;15.33;;;4.13;;
1887;SDS011;944;51.574;6.980;2023-07-13T09:11:16;11.70;;;5.13;;
1887;SDS011;944;51.574;6.980;2023-07-13T09:14:02;15.07;;;4.10;;
1887;SDS011;944;51.574;6.980;2023-07-13T09:16:44;7.83;;;3.33;;
1887;SDS011;944;51.574;6.980;2023-07-13T09:19:16;10.23;;;3.70;;
1887;SDS011;944;51.574;6.980;2023-07-13T09:25:44;8.97;;;3.30;;
1887;SDS011;944;51.574;6.980;2023-07-13T09:28:35;11.30;;;3.73;;
1887;SDS011;944;51.574;6.980;2023-07-13T09:32:03;9.17;;;3.87;;
1887;SDS011;944;51.574;6.980;2023-07-13T09:34:40;12.67;;;3.57;;
1887;SDS011;944;51.574;6.980;2023-07-13T09:37:12;16.63;;;10.13;;
1887;SDS011;944;51.574;6.980;2023-07-13T09:39:39;12.03;;;3.60;;
1887;SDS011;944;51.574;6.980;2023-07-13T09:42:13;10.57;;;3.30;;
1887;SDS011;944;51.574;6.980;2023-07-13T09:44:50;14.00;;;4.00;;
1887;SDS011;944;51.574;6.980;2023-07-13T09:47:22;8.90;;;4.37;;
1887;SDS011;944;51.574;6.980;2023-07-13T09:49:55;10.80;;;3.43;;
1887;SDS011;944;51.574;6.980;2023-07-13T09:52:26;11.27;;;3.80;;
1887;SDS011;944;51.574;6.980;2023-07-13T09:58:02;13.70;;;4.60;;
1887;SDS011;944;51.574;6.980;2023-07-13T10:03:36;13.03;;;4.37;;
1887;SDS011;944;51.574;6.980;2023-07-13T10:06:12;11.47;;;3.10;;
1887;SDS011;944;51.574;6.980;2023-07-13T10:08:48;10.83;;;4.07;;
1887;SDS011;944;51.574;6.980;2023-07-13T10:11:28;16.30;;;4.57;;
1887;SDS011;944;51.574;6.980;2023-07-13T10:17:24;14.00;;;4.00;;
1887;SDS011;944;51.574;6.980;2023-07-13T10:20:03;5.20;;;3.13;;
1887;SDS011;944;51.574;6.980;2023-07-13T10:22:40;16.23;;;3.80;;
1887;SDS011;944;51.574;6.980;2023-07-13T10:25:19;18.20;;;4.40;;
1887;SDS011;944;51.574;6.980;2023-07-13T10:28:14;7.87;;;3.47;;
1887;SDS011;944;51.574;6.980;2023-07-13T10:38:06;11.83;;;3.90;;
1887;SDS011;944;51.574;6.980;2023-07-13T10:40:38;8.70;;;3.77;;
1887;SDS011;944;51.574;6.980;2023-07-13T10:43:10;7.90;;;3.60;;
1887;SDS011;944;51.574;6.980;2023-07-13T10:49:29;8.80;;;3.13;;
1887;SDS011;944;51.574;6.980;2023-07-13T11:35:50;13.33;;;2.80;;
1887;SDS011;944;51.574;6.980;2023-07-13T11:39:08;11.87;;;2.93;;
1887;SDS011;944;51.574;6.980;2023-07-13T11:42:03;8.67;;;2.53;;
1887;SDS011;944;51.574;6.980;2023-07-13T11:45:14;5.07;;;2.43;;
1887;SDS011;944;51.574;6.980;2023-07-13T11:48:01;5.50;;;2.03;;
1887;SDS011;944;51.574;6.980;2023-07-13T11:50:42;6.30;;;2.80;;
1887;SDS011;944;51.574;6.980;2023-07-13T11:53:28;6.80;;;2.20;;
1887;SDS011;944;51.574;6.980;2023-07-13T11:56:03;6.37;;;2.23;;
1887;SDS011;944;51.574;6.980;2023-07-13T11:58:33;11.63;;;2.70;;
1887;SDS011;944;51.574;6.980;2023-07-13T12:01:03;8.90;;;2.43;;
1887;SDS011;944;51.574;6.980;2023-07-13T12:03:37;3.47;;;2.00;;
1887;SDS011;944;51.574;6.980;2023-07-13T12:16:44;8.93;;;2.60;;
1887;SDS011;944;51.574;6.980;2023-07-13T12:31:29;5.67;;;2.60;;
1887;SDS011;944;51.574;6.980;2023-07-13T12:34:08;8.67;;;2.77;;
1887;SDS011;944;51.574;6.980;2023-07-13T12:36:45;7.40;;;2.50;;
1887;SDS011;944;51.574;6.980;2023-07-13T12:39:27;5.70;;;2.30;;
1887;SDS011;944;51.574;6.980;2023-07-13T12:45:57;3.83;;;2.27;;
1887;SDS011;944;51.574;6.980;2023-07-13T12:49:08;5.57;;;2.20;;
1887;SDS011;944;51.574;6.980;2023-07-13T12:55:55;7.30;;;2.43;;
1887;SDS011;944;51.574;6.980;2023-07-13T12:58:41;4.80;;;2.30;;
1887;SDS011;944;51.574;6.980;2023-07-13T13:01:11;7.60;;;2.90;;
1887;SDS011;944;51.574;6.980;2023-07-13T13:03:40;8.80;;;2.63;;
1887;SDS011;944;51.574;6.980;2023-07-13T13:09:03;16.10;;;3.40;;
1887;SDS011;944;51.574;6.980;2023-07-13T13:11:38;4.70;;;3.03;;
1887;SDS011;944;51.574;6.980;2023-07-13T13:14:09;5.40;;;2.83;;
1887;SDS011;944;51.574;6.980;2023-07-13T13:16:44;10.60;;;4.27;;
1887;SDS011;944;51.574;6.980;2023-07-13T13:19:16;10.53;;;4.80;;
1887;SDS011;944;51.574;6.980;2023-07-13T13:25:29;8.77;;;4.13;;
1887;SDS011;944;51.574;6.980;2023-07-13T13:27:56;9.67;;;4.43;;
1887;SDS011;944;51.574;6.980;2023-07-13T13:38:54;8.80;;;3.27;;
1887;SDS011;944;51.574;6.980;2023-07-13T13:44:32;3.50;;;3.20;;
1887;SDS011;944;51.574;6.980;2023-07-13T13:47:01;7.50;;;3.23;;
1887;SDS011;944;51.574;6.980;2023-07-13T13:49:38;4.37;;;2.87;;
1887;SDS011;944;51.574;6.980;2023-07-13T13:52:12;5.67;;;2.70;;
1887;SDS011;944;51.574;6.980;2023-07-13T13:54:45;8.47;;;3.33;;
1887;SDS011;944;51.574;6.980;2023-07-13T14:00:56;7.50;;;3.10;;
1887;SDS011;944;51.574;6.980;2023-07-13T14:03:25;6.80;;;3.40;;
1887;SDS011;944;51.574;6.980;2023-07-13T14:05:58;4.60;;;3.33;;
1887;SDS011;944;51.574;6.980;2023-07-13T14:08:27;5.33;;;3.23;;
1887;SDS011;944;51.574;6.980;2023-07-13T14:10:54;5.30;;;3.17;;
1887;SDS011;944;51.574;6.980;2023-07-13T14:13:26;6.97;;;3.70;;
1887;SDS011;944;51.574;6.980;2023-07-13T14:18:58;7.30;;;3.80;;
1887;SDS011;944;51.574;6.980;2023-07-13T14:21:27;5.67;;;3.80;;
1887;SDS011;944;51.574;6.980;2023-07-13T14:23:55;10.40;;;3.80;;
1887;SDS011;944;51.574;6.980;2023-07-13T14:26:22;11.10;;;3.83;;
1887;SDS011;944;51.574;6.980;2023-07-13T14:28:52;8.73;;;3.70;;
1887;SDS011;944;51.574;6.980;2023-07-13T14:31:23;7.27;;;4.30;;
1887;SDS011;944;51.574;6.980;2023-07-13T14:33:55;7.30;;;4.27;;
1887;SDS011;944;51.574;6.980;2023-07-13T14:36:26;4.40;;;3.73;;
1887;SDS011;944;51.574;6.980;2023-07-13T14:38:56;4.97;;;3.63;;
1887;SDS011;944;51.574;6.980;2023-07-13T14:41:24;6.73;;;3.40;;
1887;SDS011;944;51.574;6.980;2023-07-13T14:43:52;6.90;;;4.20;;
1887;SDS011;944;51.574;6.980;2023-07-13T14:46:22;6.53;;;3.93;;
1887;SDS011;944;51.574;6.980;2023-07-13T14:48:59;9.73;;;3.23;;
1887;SDS011;944;51.574;6.980;2023-07-13T14:51:29;5.23;;;3.30;;
1887;SDS011;944;51.574;6.980;2023-07-13T14:53:57;7.93;;;4.00;;
1887;SDS011;944;51.574;6.980;2023-07-13T14:56:27;6.23;;;3.37;;
1887;SDS011;944;51.574;6.980;2023-07-13T14:58:54;5.43;;;2.50;;
1887;SDS011;944;51.574;6.980;2023-07-13T15:01:21;4.63;;;2.50;;
1887;SDS011;944;51.574;6.980;2023-07-13T15:03:49;8.03;;;2.90;;
1887;SDS011;944;51.574;6.980;2023-07-13T15:06:22;8.63;;;2.97;;
1887;SDS011;944;51.574;6.980;2023-07-13T15:08:55;6.63;;;3.00;;
1887;SDS011;944;51.574;6.980;2023-07-13T15:11:32;10.00;;;2.83;;
1887;SDS011;944;51.574;6.980;2023-07-13T15:14:31;7.43;;;2.80;;
1887;SDS011;944;51.574;6.980;2023-07-13T15:17:23;8.53;;;2.97;;
1887;SDS011;944;51.574;6.980;2023-07-13T15:26:55;7.97;;;2.40;;
1887;SDS011;944;51.574;6.980;2023-07-13T15:29:32;8.03;;;3.07;;
1887;SDS011;944;51.574;6.980;2023-07-13T16:09:45;6.60;;;3.07;;
1887;SDS011;944;51.574;6.980;2023-07-13T16:12:13;7.53;;;3.33;;
1887;SDS011;944;51.574;6.980;2023-07-13T16:14:42;11.57;;;3.47;;
1887;SDS011;944;51.574;6.980;2023-07-13T16:17:09;10.63;;;4.33;;
1887;SDS011;944;51.574;6.980;2023-07-13T16:19:37;6.10;;;3.33;;
1887;SDS011;944;51.574;6.980;2023-07-13T16:22:05;10.43;;;3.50;;
1887;SDS011;944;51.574;6.980;2023-07-13T16:24:40;18.30;;;6.40;;
1887;SDS011;944;51.574;6.980;2023-07-13T16:27:11;11.23;;;3.70;;
1887;SDS011;944;51.574;6.980;2023-07-13T16:29:39;10.13;;;4.00;;
1887;SDS011;944;51.574;6.980;2023-07-13T16:32:18;12.37;;;4.87;;
1887;SDS011;944;51.574;6.980;2023-07-13T16:35:06;13.40;;;4.30;;
1887;SDS011;944;51.574;6.980;2023-07-13T16:37:56;14.23;;;4.60;;
1887;SDS011;944;51.574;6.980;2023-07-13T16:45:00;12.57;;;4.43;;
1887;SDS011;944;51.574;6.980;2023-07-13T16:47:31;10.33;;;3.83;;
1887;SDS011;944;51.574;6.980;2023-07-13T16:49:58;14.73;;;4.23;;
1887;SDS011;944;51.574;6.980;2023-07-13T16:52:28;9.50;;;4.00;;
1887;SDS011;944;51.574;6.980;2023-07-13T16:54:55;14.73;;;4.60;;
1887;SDS011;944;51.574;6.980;2023-07-13T16:59:52;10.00;;;3.97;;
1887;SDS011;944;51.574;6.980;2023-07-13T17:02:33;16.23;;;4.10;;
1887;SDS011;944;51.574;6.980;2023-07-13T17:05:03;9.40;;;4.00;;
1887;SDS011;944;51.574;6.980;2023-07-13T17:07:34;12.40;;;5.20;;
1887;SDS011;944;51.574;6.980;2023-07-13T19:28:31;7.30;;;4.07;;
1887;SDS011;944;51.574;6.980;2023-07-13T19:31:04;6.03;;;3.30;;
1887;SDS011;944;51.574;6.980;2023-07-13T19:33:41;6.07;;;4.10;;
1887;SDS011;944;51.574;6.980;2023-07-13T19:36:08;3.70;;;3.23;;
1887;SDS011;944;51.574;6.980;2023-07-13T19:38:37;7.57;;;3.77;;
1887;SDS011;944;51.574;6.980;2023-07-13T19:41:05;6.00;;;4.40;;
1887;SDS011;944;51.574;6.980;2023-07-13T19:43:40;5.67;;;3.53;;
1887;SDS011;944;51.574;6.980;2023-07-13T19:46:12;8.20;;;3.80;;
1887;SDS011;944;51.574;6.980;2023-07-13T19:48:56;6.97;;;4.27;;
1887;SDS011;944;51.574;6.980;2023-07-13T19:51:24;10.80;;;3.80;;
1887;SDS011;944;51.574;6.980;2023-07-13T19:53:54;7.87;;;4.67;;
1887;SDS011;944;51.574;6.980;2023-07-13T19:56:25;4.73;;;3.77;;
1887;SDS011;944;51.574;6.980;2023-07-13T19:58:57;6.17;;;3.70;;
1887;SDS011;944;51.574;6.980;2023-07-13T20:01:25;4.37;;;3.37;;
1887;SDS011;944;51.574;6.980;2023-07-13T20:03:52;5.90;;;2.73;;
1887;SDS011;944;51.574;6.980;2023-07-13T20:06:29;3.80;;;2.77;;
1887;SDS011;944;51.574;6.980;2023-07-13T20:09:00;5.80;;;3.33;;
1887;SDS011;944;51.574;6.980;2023-07-13T20:11:29;6.40;;;3.97;;
1887;SDS011;944;51.574;6.980;2023-07-13T20:13:57;4.00;;;2.87;;
1887;SDS011;944;51.574;6.980;2023-07-13T20:16:25;4.93;;;3.30;;
1887;SDS011;944;51.574;6.980;2023-07-13T20:18:53;4.67;;;2.97;;
1887;SDS011;944;51.574;6.980;2023-07-13T20:21:20;11.07;;;5.17;;
1887;SDS011;944;51.574;6.980;2023-07-13T20:23:48;6.03;;;3.37;;
1887;SDS011;944;51.574;6.980;2023-07-13T20:26:15;8.03;;;3.10;;
1887;SDS011;944;51.574;6.980;2023-07-13T20:28:42;5.20;;;2.57;;
1887;SDS011;944;51.574;6.980;2023-07-13T20:31:12;5.90;;;3.10;;
1887;SDS011;944;51.574;6.980;2023-07-13T20:33:40;6.63;;;3.10;;
1887;SDS011;944;51.574;6.980;2023-07-13T20:36:10;4.90;;;3.33;;
1887;SDS011;944;51.574;6.980;2023-07-13T20:42:19;8.70;;;3.73;;
1887;SDS011;944;51.574;6.980;2023-07-13T20:44:46;9.17;;;3.73;;
1887;SDS011;944;51.574;6.980;2023-07-13T20:47:15;12.43;;;3.10;;
1887;SDS011;944;51.574;6.980;2023-07-13T20:49:44;4.30;;;2.90;;
1887;SDS011;944;51.574;6.980;2023-07-13T20:52:12;4.83;;;3.17;;
1887;SDS011;944;51.574;6.980;2023-07-13T20:57:15;25.93;;;3.87;;
1887;SDS011;944;51.574;6.980;2023-07-13T20:59:45;5.10;;;3.60;;
1887;SDS011;944;51.574;6.980;2023-07-13T21:02:25;3.90;;;3.20;;
1887;SDS011;944;51.574;6.980;2023-07-13T21:04:56;6.57;;;3.63;;
1887;SDS011;944;51.574;6.980;2023-07-13T21:17:42;12.35;;;3.60;;
1887;SDS011;944;51.574;6.980;2023-07-13T21:30:40;8.97;;;4.00;;
1887;SDS011;944;51.574;6.980;2023-07-13T22:09:26;7.93;;;4.10;;
1887;SDS011;944;51.574;6.980;2023-07-13T22:11:54;7.13;;;3.90;;
1887;SDS011;944;51.574;6.980;2023-07-13T23:24:20;11.23;;;4.53;;
1887;SDS011;944;51.574;6.980;2023-07-13T23:26:48;7.97;;;4.13;;
1887;SDS011;944;51.574;6.980;2023-07-13T23:29:15;7.03;;;3.93;;
1887;SDS011;944;51.574;6.980;2023-07-13T23:31:42;10.00;;;4.20;;
1887;SDS011;944;51.574;6.980;2023-07-13T23:34:11;17.20;;;5.10;;
1887;SDS011;944;51.574;6.980;2023-07-13T23:36:41;10.40;;;4.63;;
1887;SDS011;944;51.574;6.980;2023-07-13T23:39:11;7.97;;;4.67;;
1887;SDS011;944;51.574;6.980;2023-07-13T23:41:42;8.37;;;4.87;;
1887;SDS011;944;51.574;6.980;2023-07-13T23:44:11;13.40;;;5.17;;
1887;SDS011;944;51.574;6.980;2023-07-13T23:46:40;11.10;;;4.70;;